createdAt,value
2023-02-12T00:00:02.758Z,4.10
2023-02-12T00:02:30.152Z,3.87
2023-02-12T00:04:56.594Z,3.10
2023-02-12T00:07:22.974Z,2.83
2023-02-12T00:09:49.463Z,2.70
2023-02-12T00:12:16.595Z,2.83
2023-02-12T00:14:43.193Z,2.40
2023-02-12T00:17:09.581Z,2.50
2023-02-12T00:19:36.006Z,3.03
2023-02-12T00:22:02.341Z,3.20
2023-02-12T00:24:28.776Z,2.43
2023-02-12T00:26:55.653Z,2.83
2023-02-12T00:29:22.070Z,3.07
2023-02-12T00:31:48.522Z,2.80
2023-02-12T00:34:14.999Z,3.00
2023-02-12T00:36:41.448Z,2.33
2023-02-12T00:39:07.821Z,2.47
2023-02-12T00:41:34.155Z,2.70
2023-02-12T00:44:00.548Z,2.47
2023-02-12T00:46:27.067Z,2.43
2023-02-12T00:48:53.582Z,2.40
2023-02-12T00:51:19.984Z,2.43
2023-02-12T00:53:46.383Z,2.20
2023-02-12T00:56:12.791Z,2.30
2023-02-12T00:58:39.191Z,2.37
2023-02-12T01:01:05.615Z,2.20
2023-02-12T01:03:32.111Z,3.00
2023-02-12T01:05:58.757Z,2.83
2023-02-12T01:08:25.558Z,2.63
2023-02-12T01:10:59.998Z,2.80
2023-02-12T01:13:27.421Z,2.90
2023-02-12T01:16:21.184Z,2.30
2023-02-12T01:18:48.209Z,2.50
2023-02-12T01:21:17.882Z,2.10
2023-02-12T01:23:45.110Z,1.97
2023-02-12T01:26:15.151Z,1.80
2023-02-12T01:28:44.129Z,2.20
2023-02-12T01:31:16.506Z,2.10
2023-02-12T01:33:43.688Z,2.13
2023-02-12T01:36:11.072Z,2.10
2023-02-12T01:38:37.452Z,2.70
2023-02-12T01:41:08.577Z,2.30
2023-02-12T01:43:36.335Z,2.07
2023-02-12T01:46:03.310Z,2.23
2023-02-12T01:48:34.214Z,2.60
2023-02-12T01:51:03.772Z,2.70
2023-02-12T01:53:34.720Z,2.40
2023-02-12T01:56:02.593Z,2.37
2023-02-12T01:58:35.337Z,1.90
2023-02-12T02:01:04.819Z,1.87
2023-02-12T02:03:31.425Z,2.07
2023-02-12T02:06:04.438Z,1.53
2023-02-12T02:08:30.933Z,1.83
2023-02-12T02:10:57.367Z,1.40
2023-02-12T02:13:42.202Z,1.83
2023-02-12T02:16:19.179Z,1.63
2023-02-12T02:18:54.926Z,1.87
2023-02-12T02:21:33.870Z,2.03
2023-02-12T02:24:31.552Z,1.60
2023-02-12T02:27:21.110Z,2.03
2023-02-12T02:30:12.975Z,2.33
2023-02-12T02:32:46.904Z,2.17
2023-02-12T02:35:27.882Z,2.50
2023-02-12T02:38:18.318Z,2.20
2023-02-12T02:41:09.302Z,2.00
2023-02-12T02:43:41.970Z,2.17
2023-02-12T02:46:14.044Z,2.30
2023-02-12T02:48:46.330Z,2.40
2023-02-12T02:51:18.085Z,2.20
2023-02-12T02:53:50.904Z,2.70
2023-02-12T02:56:21.254Z,2.57
2023-02-12T02:58:56.858Z,2.73
2023-02-12T03:01:29.713Z,2.70
2023-02-12T03:03:55.974Z,2.33
2023-02-12T03:06:45.139Z,3.00
2023-02-12T03:09:26.887Z,2.53
2023-02-12T03:11:57.418Z,3.00
2023-02-12T03:14:29.698Z,3.10
2023-02-12T03:17:18.592Z,3.20
2023-02-12T03:19:50.834Z,3.30
2023-02-12T03:22:23.220Z,2.90
2023-02-12T03:25:04.623Z,3.27
2023-02-12T03:27:38.985Z,3.60
2023-02-12T03:30:06.910Z,3.40
2023-02-12T03:32:58.479Z,3.70
2023-02-12T03:35:33.709Z,2.80
2023-02-12T03:38:16.693Z,3.50
2023-02-12T03:41:06.708Z,4.10
2023-02-12T03:43:37.100Z,4.53
2023-02-12T03:46:47.037Z,5.17
2023-02-12T03:49:20.010Z,4.50
2023-02-12T03:51:46.402Z,6.10
2023-02-12T03:54:16.657Z,6.60
2023-02-12T03:56:55.372Z,6.70
2023-02-12T03:59:23.786Z,6.30
2023-02-12T04:01:52.783Z,7.13
2023-02-12T04:04:20.283Z,7.27
2023-02-12T04:06:49.133Z,7.23
2023-02-12T04:09:16.608Z,7.50
2023-02-12T04:12:11.709Z,7.77
2023-02-12T04:14:54.351Z,8.40
2023-02-12T04:17:46.659Z,10.33
2023-02-12T04:20:39.207Z,10.00
2023-02-12T04:23:20.617Z,10.70
2023-02-12T04:26:15.252Z,10.93
2023-02-12T04:28:51.862Z,11.70
2023-02-12T04:31:26.044Z,12.40
2023-02-12T04:34:03.861Z,11.20
2023-02-12T04:36:35.422Z,12.90
2023-02-12T04:39:06.759Z,9.90
2023-02-12T04:41:33.389Z,11.00
2023-02-12T04:44:13.811Z,10.77
2023-02-12T04:46:40.164Z,10.67
2023-02-12T04:49:06.948Z,9.93
2023-02-12T04:51:33.293Z,9.87
2023-02-12T04:53:59.682Z,9.93
2023-02-12T04:56:26.032Z,9.10
2023-02-12T04:58:53.688Z,8.73
2023-02-12T05:01:20.044Z,9.00
2023-02-12T05:03:46.436Z,8.80
2023-02-12T05:06:12.926Z,7.90
2023-02-12T05:08:39.287Z,10.47
2023-02-12T05:11:08.094Z,8.47
2023-02-12T05:13:35.057Z,8.53
2023-02-12T05:16:05.257Z,7.67
2023-02-12T05:18:32.274Z,8.47
2023-02-12T05:21:00.200Z,7.77
2023-02-12T05:23:31.641Z,7.93
2023-02-12T05:25:59.448Z,7.23
2023-02-12T05:28:26.066Z,7.70
2023-02-12T05:30:52.869Z,8.10
2023-02-12T05:33:19.321Z,7.93
2023-02-12T05:35:45.695Z,8.23
2023-02-12T05:38:12.026Z,8.97
2023-02-12T05:40:40.402Z,8.50
2023-02-12T05:43:06.747Z,8.70
2023-02-12T05:45:33.436Z,8.67
2023-02-12T05:47:59.817Z,10.40
2023-02-12T05:50:26.220Z,8.20
2023-02-12T05:52:52.813Z,8.60
2023-02-12T05:55:19.155Z,8.77
2023-02-12T05:57:45.725Z,8.97
2023-02-12T06:00:12.589Z,8.70
2023-02-12T06:02:39.122Z,9.33
2023-02-12T06:05:05.902Z,7.93
2023-02-12T06:07:32.439Z,9.30
2023-02-12T06:09:59.324Z,9.43
2023-02-12T06:12:25.813Z,8.03
2023-02-12T06:14:52.169Z,9.23
2023-02-12T06:17:18.653Z,8.40
2023-02-12T06:19:44.999Z,9.20
2023-02-12T06:22:11.542Z,10.70
2023-02-12T06:24:37.892Z,10.33
2023-02-12T06:27:04.519Z,11.17
2023-02-12T06:29:30.913Z,9.83
2023-02-12T06:31:57.559Z,9.90
2023-02-12T06:34:24.012Z,10.50
2023-02-12T06:36:50.654Z,9.40
2023-02-12T06:39:17.849Z,10.97
2023-02-12T06:41:44.685Z,10.03
2023-02-12T06:44:12.730Z,10.20
2023-02-12T06:46:39.443Z,8.80
2023-02-12T06:49:05.962Z,11.43
2023-02-12T06:51:32.485Z,9.83
2023-02-12T06:53:59.208Z,10.20
2023-02-12T06:56:26.968Z,11.90
2023-02-12T06:58:56.070Z,10.53
2023-02-12T07:01:25.737Z,10.83
2023-02-12T07:03:55.134Z,11.27
2023-02-12T07:06:22.647Z,11.30
2023-02-12T07:08:49.762Z,11.77
2023-02-12T07:11:16.980Z,13.07
2023-02-12T07:13:44.877Z,13.07
2023-02-12T07:16:13.803Z,13.73
2023-02-12T07:18:40.680Z,14.30
2023-02-12T07:21:08.186Z,14.70
2023-02-12T07:23:35.503Z,14.80
2023-02-12T07:26:07.166Z,12.90
2023-02-12T07:28:34.639Z,14.60
2023-02-12T07:31:08.331Z,14.70
2023-02-12T07:33:36.067Z,15.80
2023-02-12T07:36:04.018Z,16.43
2023-02-12T07:38:30.428Z,14.87
2023-02-12T07:41:09.432Z,17.10
2023-02-12T07:43:36.858Z,16.80
2023-02-12T07:46:11.601Z,16.27
2023-02-12T07:48:38.234Z,17.23
2023-02-12T07:51:09.649Z,16.93
2023-02-12T07:53:36.735Z,19.70
2023-02-12T07:56:14.657Z,18.50
2023-02-12T07:58:42.414Z,17.60
2023-02-12T08:01:26.911Z,15.67
2023-02-12T08:03:53.934Z,17.70
2023-02-12T08:06:23.176Z,17.87
2023-02-12T08:08:54.537Z,18.40
2023-02-12T08:11:21.756Z,17.80
2023-02-12T08:13:48.846Z,16.97
2023-02-12T08:16:21.318Z,16.47
2023-02-12T08:18:48.692Z,17.10
2023-02-12T08:21:20.677Z,17.30
2023-02-12T08:23:50.975Z,17.60
2023-02-12T08:26:28.760Z,16.60
2023-02-12T08:29:02.255Z,18.80
2023-02-12T08:31:31.682Z,18.30
2023-02-12T08:33:59.438Z,17.80
2023-02-12T08:36:28.494Z,16.00
2023-02-12T08:38:58.840Z,14.93
2023-02-12T08:41:28.180Z,16.33
2023-02-12T08:43:57.437Z,15.50
2023-02-12T08:46:29.851Z,15.80
2023-02-12T08:48:59.425Z,16.17
2023-02-12T08:51:28.706Z,17.13
2023-02-12T08:53:57.749Z,17.77
2023-02-12T08:56:26.555Z,16.30
2023-02-12T08:58:52.948Z,15.53
2023-02-12T09:01:22.765Z,16.53
2023-02-12T09:03:50.435Z,15.07
2023-02-12T09:06:18.227Z,16.70
2023-02-12T09:08:45.327Z,15.73
2023-02-12T09:11:16.431Z,16.10
2023-02-12T09:13:44.518Z,16.13
2023-02-12T09:16:11.011Z,16.50
2023-02-12T09:18:38.166Z,15.13
2023-02-12T09:21:14.115Z,13.90
2023-02-12T09:23:40.805Z,14.90
2023-02-12T09:26:09.444Z,14.97
2023-02-12T09:28:36.668Z,14.73
2023-02-12T09:31:08.573Z,13.23
2023-02-12T09:33:35.405Z,15.70
2023-02-12T09:36:14.319Z,14.93
2023-02-12T09:38:41.576Z,15.80
2023-02-12T09:41:49.460Z,14.50
2023-02-12T09:44:32.609Z,14.10
2023-02-12T09:47:03.699Z,13.93
2023-02-12T09:50:00.607Z,15.13
2023-02-12T09:52:28.896Z,15.40
2023-02-12T09:54:56.555Z,14.20
2023-02-12T09:57:34.629Z,14.90
2023-02-12T10:00:15.777Z,15.37
2023-02-12T10:02:42.191Z,15.70
2023-02-12T10:05:19.075Z,14.80
2023-02-12T10:07:51.364Z,15.07
2023-02-12T10:10:39.786Z,17.60
2023-02-12T10:13:22.395Z,15.07
2023-02-12T10:16:22.226Z,14.63
2023-02-12T10:19:03.511Z,14.60
2023-02-12T10:21:48.750Z,13.03
2023-02-12T10:24:34.679Z,12.70
2023-02-12T10:27:09.474Z,12.57
2023-02-12T10:29:39.931Z,13.40
2023-02-12T10:32:27.671Z,12.43
2023-02-12T10:34:56.846Z,13.37
2023-02-12T10:37:58.091Z,12.43
2023-02-12T10:40:32.753Z,12.43
2023-02-12T10:43:00.778Z,12.80
2023-02-12T10:45:34.370Z,13.70
2023-02-12T10:48:25.334Z,13.03
2023-02-12T10:51:21.985Z,12.07
2023-02-12T10:53:49.389Z,12.77
2023-02-12T10:56:20.065Z,12.73
2023-02-12T10:58:56.902Z,12.60
2023-02-12T11:01:35.176Z,11.50
2023-02-12T11:04:24.196Z,12.90
2023-02-12T11:07:07.213Z,14.17
2023-02-12T11:09:45.190Z,14.20
2023-02-12T11:12:31.843Z,12.63
2023-02-12T11:15:19.961Z,12.20
2023-02-12T11:18:04.543Z,14.07
2023-02-12T11:20:41.284Z,13.73
2023-02-12T11:23:27.593Z,13.53
2023-02-12T11:26:07.501Z,12.10
2023-02-12T11:28:36.396Z,13.30
2023-02-12T11:31:20.511Z,12.87
2023-02-12T11:33:46.870Z,12.80
2023-02-12T11:36:35.850Z,12.17
2023-02-12T11:39:03.012Z,12.30
2023-02-12T11:41:36.260Z,13.73
2023-02-12T11:44:09.549Z,13.60
2023-02-12T11:46:36.225Z,11.87
2023-02-12T11:49:02.762Z,13.30
2023-02-12T11:51:31.422Z,13.70
2023-02-12T11:54:02.787Z,13.67
2023-02-12T11:56:43.461Z,14.33
2023-02-12T11:59:20.622Z,12.60
2023-02-12T12:01:49.282Z,13.70
2023-02-12T12:04:20.345Z,13.30
2023-02-12T12:06:52.724Z,11.43
2023-02-12T12:09:29.149Z,13.63
2023-02-12T12:11:58.439Z,13.40
2023-02-12T12:14:29.497Z,12.83
2023-02-12T12:17:29.606Z,14.27
2023-02-12T12:20:02.398Z,12.07
2023-02-12T12:23:05.846Z,11.40
2023-02-12T12:25:44.455Z,12.97
2023-02-12T12:28:31.819Z,12.20
2023-02-12T12:31:14.822Z,12.20
2023-02-12T12:33:48.937Z,10.47
2023-02-12T12:36:34.221Z,10.90
2023-02-12T12:39:18.422Z,11.00
2023-02-12T12:42:02.013Z,9.60
2023-02-12T12:44:50.302Z,8.53
2023-02-12T12:47:31.773Z,8.70
2023-02-12T12:50:07.275Z,8.33
2023-02-12T12:53:05.958Z,8.07
2023-02-12T12:55:57.742Z,7.33
2023-02-12T12:58:50.161Z,6.17
2023-02-12T13:01:25.532Z,6.73
2023-02-12T13:04:07.858Z,6.23
2023-02-12T13:07:12.652Z,7.77
2023-02-12T13:09:54.243Z,7.10
2023-02-12T13:12:38.754Z,6.70
2023-02-12T13:15:33.362Z,7.03
2023-02-12T13:18:35.417Z,7.80
2023-02-12T13:21:26.422Z,7.53
2023-02-12T13:24:03.317Z,7.37
2023-02-12T13:26:37.443Z,9.77
2023-02-12T13:29:16.994Z,9.27
2023-02-12T13:32:21.903Z,9.13
2023-02-12T13:34:48.944Z,9.53
2023-02-12T13:37:20.402Z,9.03
2023-02-12T13:39:49.242Z,9.30
2023-02-12T13:42:35.802Z,8.83
2023-02-12T13:45:21.564Z,9.17
2023-02-12T13:47:53.565Z,9.10
2023-02-12T13:50:31.804Z,9.73
2023-02-12T13:53:20.082Z,8.37
2023-02-12T13:55:46.422Z,9.00
2023-02-12T13:58:31.337Z,8.83
2023-02-12T14:01:00.902Z,9.40
2023-02-12T14:03:29.952Z,8.80
2023-02-12T14:06:17.804Z,9.43
2023-02-12T14:08:47.964Z,9.10
2023-02-12T14:11:17.767Z,10.30
2023-02-12T14:13:58.069Z,9.40
2023-02-12T14:16:30.171Z,9.13
2023-02-12T14:19:34.273Z,8.20
2023-02-12T14:22:01.802Z,8.23
2023-02-12T14:24:37.186Z,9.07
2023-02-12T14:27:36.210Z,7.77
2023-02-12T14:30:11.882Z,8.20
2023-02-12T14:32:50.668Z,8.07
2023-02-12T14:35:41.382Z,8.73
2023-02-12T14:38:16.822Z,7.37
2023-02-12T14:40:46.905Z,6.80
2023-02-12T14:44:01.312Z,7.70
2023-02-12T14:46:27.728Z,8.07
2023-02-12T14:49:04.775Z,7.43
2023-02-12T14:51:42.703Z,7.23
2023-02-12T14:54:31.314Z,6.90
2023-02-12T14:57:01.616Z,7.00
2023-02-12T14:59:33.935Z,6.43
2023-02-12T15:02:03.633Z,6.00
2023-02-12T15:04:38.007Z,6.20
2023-02-12T15:07:12.968Z,5.90
2023-02-12T15:09:51.634Z,5.70
2023-02-12T15:12:31.221Z,5.57
2023-02-12T15:15:25.377Z,4.43
2023-02-12T15:17:59.988Z,5.13
2023-02-12T15:20:44.729Z,4.90
2023-02-12T15:23:40.326Z,4.80
2023-02-12T15:26:13.592Z,5.60
2023-02-12T15:28:41.187Z,4.53
2023-02-12T15:31:10.897Z,4.97
2023-02-12T15:33:44.822Z,4.37
2023-02-12T15:36:17.647Z,4.63
2023-02-12T15:38:45.699Z,4.53
2023-02-12T15:41:26.614Z,5.53
2023-02-12T15:43:53.465Z,4.57
2023-02-12T15:46:21.002Z,4.73
2023-02-12T15:48:47.406Z,4.57
2023-02-12T15:51:13.738Z,5.10
2023-02-12T15:53:41.540Z,5.40
2023-02-12T15:56:14.800Z,5.20
2023-02-12T15:58:50.522Z,5.00
2023-02-12T16:01:19.988Z,4.43
2023-02-12T16:03:50.787Z,5.47
2023-02-12T16:06:18.576Z,4.50
2023-02-12T16:08:54.615Z,5.27
2023-02-12T16:11:23.278Z,5.13
2023-02-12T16:13:55.524Z,5.40
2023-02-12T16:16:25.586Z,6.63
2023-02-12T16:19:15.737Z,3.90
2023-02-12T16:21:42.158Z,4.87
2023-02-12T16:24:31.044Z,4.23
2023-02-12T16:27:08.238Z,8.40
2023-02-12T16:29:38.814Z,6.97
2023-02-12T16:32:05.214Z,4.50
2023-02-12T16:34:38.015Z,4.47
2023-02-12T16:37:36.124Z,5.20
2023-02-12T16:40:15.432Z,4.83
2023-02-12T16:42:47.661Z,4.93
2023-02-12T16:45:32.484Z,5.60
2023-02-12T16:48:09.053Z,4.60
2023-02-12T16:50:39.387Z,6.03
2023-02-12T16:53:08.177Z,6.13
2023-02-12T16:55:36.570Z,5.47
2023-02-12T16:58:02.933Z,6.50
2023-02-12T17:00:29.301Z,7.20
2023-02-12T17:02:56.564Z,7.00
2023-02-12T17:05:23.325Z,4.90
2023-02-12T17:07:50.301Z,5.57
2023-02-12T17:10:17.302Z,6.67
2023-02-12T17:12:51.590Z,5.73
2023-02-12T17:15:25.695Z,5.53
2023-02-12T17:17:52.044Z,6.20
2023-02-12T17:20:18.657Z,6.47
2023-02-12T17:22:50.724Z,6.70
2023-02-12T17:25:17.363Z,7.00
2023-02-12T17:27:43.834Z,7.27
2023-02-12T17:30:15.107Z,7.70
2023-02-12T17:32:41.595Z,6.43
2023-02-12T17:35:08.366Z,6.77
2023-02-12T17:37:34.705Z,7.10
2023-02-12T17:40:01.616Z,7.80
2023-02-12T17:42:28.012Z,7.33
2023-02-12T17:44:54.484Z,8.27
2023-02-12T17:47:20.858Z,8.50
2023-02-12T17:49:47.460Z,8.30
2023-02-12T17:52:13.803Z,8.67
2023-02-12T17:54:40.322Z,9.07
2023-02-12T17:57:06.727Z,8.70
2023-02-12T17:59:33.138Z,8.17
2023-02-12T18:02:00.391Z,8.57
2023-02-12T18:04:27.119Z,9.17
2023-02-12T18:06:53.459Z,8.67
2023-02-12T18:09:19.827Z,9.97
2023-02-12T18:11:46.168Z,9.60
2023-02-12T18:14:12.542Z,9.77
2023-02-12T18:16:38.902Z,9.67
2023-02-12T18:19:06.230Z,10.77
2023-02-12T18:21:34.855Z,10.33
2023-02-12T18:24:01.535Z,11.97
2023-02-12T18:26:27.894Z,9.77
2023-02-12T18:28:56.285Z,10.13
2023-02-12T18:31:22.695Z,10.73
2023-02-12T18:33:49.156Z,10.70
2023-02-12T18:36:17.644Z,11.03
2023-02-12T18:38:45.910Z,10.70
2023-02-12T18:41:16.899Z,11.73
2023-02-12T18:43:44.091Z,11.90
2023-02-12T18:46:13.925Z,12.10
2023-02-12T18:48:40.887Z,12.20
2023-02-12T18:51:09.062Z,11.83
2023-02-12T18:53:35.544Z,13.23
2023-02-12T18:56:06.252Z,14.00
2023-02-12T18:58:33.108Z,14.37
2023-02-12T19:01:00.093Z,14.33
2023-02-12T19:03:27.388Z,14.40
2023-02-12T19:05:54.066Z,15.50
2023-02-12T19:08:20.437Z,16.63
2023-02-12T19:10:49.400Z,16.70
2023-02-12T19:13:15.972Z,14.30
2023-02-12T19:15:42.329Z,16.83
2023-02-12T19:18:08.698Z,15.90
2023-02-12T19:20:35.038Z,17.37
2023-02-12T19:23:01.464Z,16.30
2023-02-12T19:25:27.829Z,31.23
2023-02-12T19:27:54.207Z,18.87
2023-02-12T19:30:20.537Z,20.37
2023-02-12T19:32:47.040Z,20.60
2023-02-12T19:35:13.402Z,18.17
2023-02-12T19:37:39.813Z,16.73
2023-02-12T19:40:06.881Z,42.20
2023-02-12T19:42:33.838Z,17.10
2023-02-12T19:45:00.168Z,17.37
2023-02-12T19:47:26.925Z,23.80
2023-02-12T19:49:53.864Z,20.90
2023-02-12T19:52:20.245Z,20.57
2023-02-12T19:54:46.595Z,17.97
2023-02-12T19:57:13.618Z,15.37
2023-02-12T19:59:40.981Z,16.47
2023-02-12T20:02:07.456Z,15.87
2023-02-12T20:04:34.026Z,16.77
2023-02-12T20:07:00.533Z,17.27
2023-02-12T20:09:26.941Z,16.37
2023-02-12T20:11:53.892Z,16.53
2023-02-12T20:14:22.492Z,16.53
2023-02-12T20:16:50.179Z,15.13
2023-02-12T20:19:27.328Z,16.23
2023-02-12T20:21:55.954Z,14.43
2023-02-12T20:24:24.412Z,16.57
2023-02-12T20:26:51.435Z,14.70
2023-02-12T20:29:17.868Z,14.77
2023-02-12T20:31:45.097Z,17.30
2023-02-12T20:34:15.596Z,15.00
2023-02-12T20:36:46.083Z,13.87
2023-02-12T20:39:15.320Z,13.83
2023-02-12T20:41:42.513Z,14.70
2023-02-12T20:44:12.841Z,15.20
2023-02-12T20:46:39.474Z,15.90
2023-02-12T20:49:06.916Z,14.93
2023-02-12T20:51:33.848Z,14.43
2023-02-12T20:54:01.983Z,15.13
2023-02-12T20:56:31.318Z,14.67
2023-02-12T20:58:58.669Z,13.97
2023-02-12T21:01:32.703Z,13.43
2023-02-12T21:04:03.230Z,16.70
2023-02-12T21:06:29.811Z,14.63
2023-02-12T21:08:56.299Z,14.27
2023-02-12T21:11:24.932Z,14.90
2023-02-12T21:13:59.260Z,13.53
2023-02-12T21:16:36.539Z,14.90
2023-02-12T21:19:03.483Z,13.30
2023-02-12T21:21:33.096Z,12.57
2023-02-12T21:24:00.957Z,12.80
2023-02-12T21:26:29.633Z,14.30
2023-02-12T21:28:57.771Z,13.23
2023-02-12T21:31:26.556Z,12.93
2023-02-12T21:33:54.502Z,11.90
2023-02-12T21:36:26.913Z,14.23
2023-02-12T21:38:54.658Z,12.70
2023-02-12T21:41:23.570Z,13.30
2023-02-12T21:43:57.219Z,13.27
2023-02-12T21:46:24.403Z,12.97
2023-02-12T21:48:51.158Z,12.90
2023-02-12T21:51:24.819Z,12.67
2023-02-12T21:53:54.067Z,11.43
2023-02-12T21:56:21.117Z,12.60
2023-02-12T21:58:48.477Z,12.70
2023-02-12T22:01:19.030Z,12.83
2023-02-12T22:03:45.593Z,13.23
2023-02-12T22:06:14.190Z,11.40
2023-02-12T22:08:40.695Z,10.80
2023-02-12T22:11:09.550Z,11.07
2023-02-12T22:13:36.388Z,12.10
2023-02-12T22:16:35.821Z,11.63
2023-02-12T22:19:03.629Z,13.23
2023-02-12T22:21:32.524Z,12.37
2023-02-12T22:24:01.915Z,12.50
2023-02-12T22:26:29.958Z,13.67
2023-02-12T22:28:59.836Z,13.30
2023-02-12T22:31:31.585Z,14.17
2023-02-12T22:34:01.244Z,12.80
2023-02-12T22:36:28.381Z,12.00
2023-02-12T22:38:57.444Z,11.77
2023-02-12T22:41:23.819Z,13.03
2023-02-12T22:43:50.210Z,12.07
2023-02-12T22:46:16.993Z,11.70
2023-02-12T22:48:43.651Z,12.27
2023-02-12T22:51:13.185Z,12.50
2023-02-12T22:53:39.623Z,13.13
2023-02-12T22:56:07.598Z,12.17
2023-02-12T22:58:34.175Z,12.30
2023-02-12T23:01:08.946Z,12.57
2023-02-12T23:03:37.597Z,11.47
2023-02-12T23:06:06.220Z,12.93
2023-02-12T23:08:33.269Z,11.67
2023-02-12T23:10:59.851Z,11.63
2023-02-12T23:13:29.940Z,13.03
2023-02-12T23:15:57.681Z,13.73
2023-02-12T23:18:24.380Z,12.77
2023-02-12T23:20:51.798Z,11.83
2023-02-12T23:23:19.260Z,11.90
2023-02-12T23:25:45.625Z,12.70
2023-02-12T23:28:12.106Z,12.67
2023-02-12T23:30:38.650Z,13.00
2023-02-12T23:33:05.068Z,13.13
2023-02-12T23:35:31.705Z,13.37
2023-02-12T23:37:58.069Z,12.90
2023-02-12T23:40:24.450Z,12.90
2023-02-12T23:42:51.177Z,13.40
2023-02-12T23:45:17.572Z,12.47
2023-02-12T23:47:43.942Z,13.07
2023-02-12T23:50:10.465Z,13.17
2023-02-12T23:52:36.957Z,11.73
2023-02-12T23:55:03.800Z,13.57
2023-02-12T23:57:30.249Z,12.90
2023-02-12T23:59:56.586Z,13.63
